createdAt,value
2019-03-21T00:01:24.957Z,26.10
2019-03-21T00:03:57.548Z,26.40
2019-03-21T00:06:28.079Z,24.92
2019-03-21T00:08:57.406Z,31.07
2019-03-21T00:11:59.697Z,28.20
2019-03-21T00:14:50.052Z,30.90
2019-03-21T00:17:37.516Z,25.85
2019-03-21T00:20:12.453Z,30.20
2019-03-21T00:22:42.724Z,25.75
2019-03-21T00:25:14.981Z,25.57
2019-03-21T00:27:44.724Z,26.50
2019-03-21T00:30:17.163Z,28.52
2019-03-21T00:32:49.920Z,27.73
2019-03-21T00:35:19.237Z,23.18
2019-03-21T00:37:48.956Z,26.55
2019-03-21T00:40:27.544Z,30.77
2019-03-21T00:42:58.038Z,25.35
2019-03-21T00:45:27.270Z,31.55
2019-03-21T00:47:56.513Z,28.42
2019-03-21T00:50:28.000Z,26.90
2019-03-21T00:52:58.333Z,26.93
2019-03-21T00:55:34.080Z,24.87
2019-03-21T00:58:05.333Z,25.35
2019-03-21T01:00:40.676Z,33.80
2019-03-21T01:03:11.265Z,28.10
2019-03-21T01:05:40.607Z,27.93
2019-03-21T01:08:10.728Z,26.12
2019-03-21T01:10:39.992Z,29.05
2019-03-21T01:13:09.225Z,24.30
2019-03-21T01:15:38.977Z,29.77
2019-03-21T01:18:14.551Z,29.12
2019-03-21T01:20:44.805Z,32.13
2019-03-21T01:23:14.096Z,31.52
2019-03-21T01:25:47.633Z,32.85
2019-03-21T01:28:17.849Z,31.68
2019-03-21T01:30:47.032Z,29.98
2019-03-21T01:33:16.216Z,23.57
2019-03-21T01:35:45.464Z,30.30
2019-03-21T01:38:14.712Z,28.45
2019-03-21T01:40:47.139Z,28.57
2019-03-21T01:43:16.300Z,30.97
2019-03-21T01:45:45.497Z,31.02
2019-03-21T01:48:14.776Z,28.38
2019-03-21T01:50:44.039Z,27.82
2019-03-21T01:53:13.398Z,28.60
2019-03-21T01:55:42.648Z,29.30
2019-03-21T01:58:11.897Z,26.97
2019-03-21T02:00:50.365Z,28.35
2019-03-21T02:03:19.628Z,26.05
2019-03-21T02:05:49.013Z,23.80
2019-03-21T02:08:18.264Z,32.98
2019-03-21T02:10:48.442Z,29.70
2019-03-21T02:13:17.711Z,30.82
2019-03-21T02:15:47.957Z,31.65
2019-03-21T02:18:18.083Z,32.73
2019-03-21T02:20:47.355Z,27.40
2019-03-21T02:23:16.624Z,29.67
2019-03-21T02:25:46.189Z,36.83
2019-03-21T02:28:15.447Z,26.95
2019-03-21T02:30:50.307Z,32.85
2019-03-21T02:33:25.337Z,30.92
2019-03-21T02:35:54.615Z,32.45
2019-03-21T02:38:24.984Z,33.25
2019-03-21T02:40:57.313Z,36.50
2019-03-21T02:43:26.575Z,30.62
2019-03-21T02:45:56.987Z,31.35
2019-03-21T02:48:28.303Z,34.08
2019-03-21T02:50:58.522Z,35.33
2019-03-21T02:53:27.808Z,34.48
2019-03-21T02:55:57.072Z,33.00
2019-03-21T02:58:26.331Z,32.80
2019-03-21T03:00:55.612Z,30.05
2019-03-21T03:03:25.921Z,29.75
2019-03-21T03:05:55.236Z,40.38
2019-03-21T03:08:25.467Z,38.92
2019-03-21T03:11:00.336Z,38.17
2019-03-21T03:13:29.544Z,38.75
2019-03-21T03:15:58.813Z,42.00
2019-03-21T03:18:28.090Z,41.77
2019-03-21T03:20:58.276Z,38.00
2019-03-21T03:23:28.453Z,38.05
2019-03-21T03:25:57.783Z,37.42
2019-03-21T03:28:29.818Z,38.92
2019-03-21T03:30:59.267Z,37.10
2019-03-21T03:33:28.571Z,39.73
2019-03-21T03:35:57.957Z,38.55
2019-03-21T03:38:27.229Z,44.90
2019-03-21T03:41:08.762Z,41.37
2019-03-21T03:43:38.970Z,42.35
2019-03-21T03:46:10.294Z,43.55
2019-03-21T03:48:41.454Z,42.75
2019-03-21T03:51:10.733Z,49.55
2019-03-21T03:53:42.398Z,48.17
2019-03-21T03:56:12.209Z,53.25
2019-03-21T03:59:05.723Z,51.75
2019-03-21T04:01:35.296Z,49.23
2019-03-21T04:04:06.109Z,51.10
2019-03-21T04:06:35.635Z,50.75
2019-03-21T04:09:08.248Z,53.42
2019-03-21T04:11:38.442Z,59.15
2019-03-21T04:14:08.733Z,57.30
2019-03-21T04:16:39.277Z,59.63
2019-03-21T04:19:08.548Z,52.33
2019-03-21T04:21:37.823Z,55.58
2019-03-21T04:24:07.079Z,55.12
2019-03-21T04:26:36.890Z,60.33
2019-03-21T04:29:06.106Z,56.15
2019-03-21T04:31:35.394Z,58.25
2019-03-21T04:34:07.957Z,59.98
2019-03-21T04:36:37.239Z,58.13
2019-03-21T04:39:09.884Z,59.77
2019-03-21T04:41:41.095Z,58.52
2019-03-21T04:44:10.365Z,54.75
2019-03-21T04:46:39.622Z,57.75
2019-03-21T04:49:09.741Z,59.63
2019-03-21T04:51:39.027Z,58.45
2019-03-21T04:54:09.514Z,60.12
2019-03-21T04:56:38.736Z,60.12
2019-03-21T04:59:08.094Z,59.90
2019-03-21T05:01:37.366Z,62.25
2019-03-21T05:04:06.637Z,59.58
2019-03-21T05:06:35.908Z,57.70
2019-03-21T05:09:07.926Z,62.43
2019-03-21T05:11:38.853Z,59.23
2019-03-21T05:14:08.203Z,59.10
2019-03-21T05:16:37.477Z,57.85
2019-03-21T05:19:06.780Z,62.60
2019-03-21T05:21:36.056Z,66.72
2019-03-21T05:24:05.400Z,57.65
2019-03-21T05:26:34.667Z,67.05
2019-03-21T05:29:03.970Z,65.35
2019-03-21T05:31:35.313Z,59.77
2019-03-21T05:34:05.848Z,59.20
2019-03-21T05:36:35.143Z,69.12
2019-03-21T05:39:09.649Z,65.52
2019-03-21T05:41:39.942Z,64.30
2019-03-21T05:44:17.766Z,68.05
2019-03-21T05:46:47.059Z,69.97
2019-03-21T05:49:16.342Z,70.15
2019-03-21T05:51:46.565Z,62.58
2019-03-21T05:54:15.848Z,69.80
2019-03-21T05:56:47.147Z,71.07
2019-03-21T05:59:17.393Z,68.33
2019-03-21T06:01:47.913Z,75.20
2019-03-21T06:04:18.147Z,65.55
2019-03-21T06:06:51.701Z,64.95
2019-03-21T06:09:23.848Z,61.48
2019-03-21T06:11:59.488Z,74.70
2019-03-21T06:14:31.481Z,69.85
2019-03-21T06:17:03.227Z,66.67
2019-03-21T06:19:53.536Z,69.40
2019-03-21T06:22:31.625Z,69.07
2019-03-21T06:25:22.138Z,70.28
2019-03-21T06:27:53.018Z,70.67
2019-03-21T06:30:22.795Z,75.10
2019-03-21T06:32:52.587Z,69.97
2019-03-21T06:35:22.069Z,74.67
2019-03-21T06:37:51.452Z,68.10
2019-03-21T06:40:20.712Z,72.25
2019-03-21T06:42:50.954Z,67.92
2019-03-21T06:45:22.256Z,66.10
2019-03-21T06:47:55.413Z,71.05
2019-03-21T06:50:25.596Z,68.95
2019-03-21T06:52:55.790Z,70.90
2019-03-21T06:55:28.365Z,67.95
2019-03-21T06:58:00.262Z,66.62
2019-03-21T07:00:30.531Z,70.62
2019-03-21T07:02:59.835Z,66.20
2019-03-21T07:05:29.156Z,77.75
2019-03-21T07:07:58.424Z,70.97
2019-03-21T07:10:27.681Z,75.47
2019-03-21T07:12:57.001Z,69.85
2019-03-21T07:15:27.181Z,71.87
2019-03-21T07:17:56.471Z,68.78
2019-03-21T07:20:25.774Z,75.55
2019-03-21T07:22:55.049Z,71.05
2019-03-21T07:25:25.336Z,63.30
2019-03-21T07:27:54.842Z,81.50
2019-03-21T07:30:24.128Z,70.30
2019-03-21T07:32:54.098Z,68.10
2019-03-21T07:35:26.048Z,65.62
2019-03-21T07:37:56.265Z,62.48
2019-03-21T07:40:25.545Z,60.20
2019-03-21T07:42:57.713Z,67.00
2019-03-21T07:45:28.879Z,56.80
2019-03-21T07:47:58.241Z,71.45
2019-03-21T07:50:28.533Z,64.12
2019-03-21T07:52:59.853Z,63.87
2019-03-21T07:55:33.045Z,61.98
2019-03-21T07:58:03.329Z,59.88
2019-03-21T08:00:34.573Z,64.85
2019-03-21T08:03:04.419Z,55.28
2019-03-21T08:05:40.399Z,59.45
2019-03-21T08:08:07.573Z,55.55
2019-03-21T08:10:41.363Z,54.75
2019-03-21T08:13:10.662Z,53.50
2019-03-21T08:15:40.116Z,52.80
2019-03-21T08:18:10.584Z,54.95
2019-03-21T08:20:39.861Z,51.15
2019-03-21T08:23:09.057Z,52.93
2019-03-21T08:25:38.260Z,54.70
2019-03-21T08:28:09.534Z,64.90
2019-03-21T08:30:55.153Z,60.17
2019-03-21T08:33:24.491Z,56.25
2019-03-21T08:35:55.729Z,56.75
2019-03-21T08:38:24.961Z,57.00
2019-03-21T08:40:55.326Z,55.98
2019-03-21T08:43:25.756Z,56.13
2019-03-21T08:45:57.007Z,56.18
2019-03-21T08:48:27.805Z,55.20
2019-03-21T08:51:08.494Z,61.18
2019-03-21T08:56:30.588Z,52.20
2019-03-21T08:59:00.833Z,53.35
2019-03-21T09:01:32.586Z,46.83
2019-03-21T09:04:04.783Z,55.40
2019-03-21T09:06:33.941Z,54.33
2019-03-21T09:09:04.177Z,53.78
2019-03-21T09:11:35.020Z,52.30
2019-03-21T09:14:04.179Z,47.00
2019-03-21T09:16:33.361Z,46.02
2019-03-21T09:19:02.522Z,46.28
2019-03-21T09:21:31.769Z,46.33
2019-03-21T09:24:01.316Z,50.83
2019-03-21T09:26:31.170Z,47.13
2019-03-21T09:29:00.569Z,45.05
2019-03-21T09:31:32.515Z,40.25
2019-03-21T09:34:03.022Z,51.57
2019-03-21T09:36:32.186Z,43.23
2019-03-21T09:39:01.355Z,45.45
2019-03-21T09:41:31.197Z,41.23
2019-03-21T09:44:02.436Z,38.80
2019-03-21T09:46:32.594Z,47.50
2019-03-21T09:49:04.110Z,42.35
2019-03-21T09:51:33.269Z,49.58
2019-03-21T09:54:09.645Z,46.28
2019-03-21T09:56:33.381Z,43.10
2019-03-21T09:59:02.618Z,44.77
2019-03-21T10:01:33.270Z,41.13
2019-03-21T10:04:03.337Z,45.38
2019-03-21T10:06:35.621Z,45.25
2019-03-21T10:09:07.306Z,44.73
2019-03-21T10:11:38.802Z,45.55
2019-03-21T10:14:08.244Z,48.95
2019-03-21T10:16:39.981Z,49.85
2019-03-21T10:19:09.170Z,48.78
2019-03-21T10:21:43.226Z,50.20
2019-03-21T10:24:10.969Z,48.23
2019-03-21T10:26:40.223Z,47.85
2019-03-21T10:29:09.478Z,45.80
2019-03-21T10:31:38.734Z,48.23
2019-03-21T10:34:07.957Z,39.60
2019-03-21T10:36:38.062Z,42.65
2019-03-21T10:39:07.380Z,47.50
2019-03-21T10:41:39.267Z,40.92
2019-03-21T10:44:08.414Z,43.10
2019-03-21T10:46:37.582Z,40.67
2019-03-21T10:49:06.775Z,35.52
2019-03-21T10:51:36.030Z,36.35
2019-03-21T10:54:08.426Z,36.45
2019-03-21T10:56:37.618Z,36.63
2019-03-21T10:59:06.803Z,37.28
2019-03-21T11:01:37.652Z,32.53
2019-03-21T11:04:07.822Z,32.15
2019-03-21T11:06:37.004Z,34.63
2019-03-21T11:09:07.649Z,26.90
2019-03-21T11:11:36.895Z,28.47
2019-03-21T11:14:07.009Z,24.77
2019-03-21T11:16:37.865Z,28.20
2019-03-21T11:19:10.663Z,28.40
2019-03-21T11:24:09.431Z,31.07
2019-03-21T11:26:39.626Z,29.95
2019-03-21T11:29:08.794Z,27.45
2019-03-21T11:31:39.586Z,25.15
2019-03-21T11:34:08.787Z,23.42
2019-03-21T11:36:38.881Z,23.35
2019-03-21T11:39:12.782Z,22.13
2019-03-21T11:41:42.022Z,18.92
2019-03-21T11:44:14.071Z,25.05
2019-03-21T11:46:46.292Z,23.70
2019-03-21T11:49:18.510Z,22.32
2019-03-21T11:51:48.673Z,16.70
2019-03-21T11:54:19.920Z,23.75
2019-03-21T11:56:49.142Z,18.23
2019-03-21T11:59:19.188Z,21.30
2019-03-21T12:01:48.376Z,20.72
2019-03-21T12:04:20.298Z,21.68
2019-03-21T12:06:52.766Z,20.25
2019-03-21T12:09:22.840Z,20.57
2019-03-21T12:11:52.124Z,19.32
2019-03-21T12:14:21.647Z,21.05
2019-03-21T12:16:51.972Z,20.85
2019-03-21T12:19:24.589Z,23.80
2019-03-21T12:24:23.156Z,17.17
2019-03-21T12:26:52.630Z,20.15
2019-03-21T12:29:21.818Z,22.35
2019-03-21T12:31:51.074Z,19.62
2019-03-21T12:34:20.279Z,23.40
2019-03-21T12:36:49.442Z,20.43
2019-03-21T12:39:18.596Z,22.82
2019-03-21T12:41:47.772Z,21.60
2019-03-21T12:44:18.594Z,17.85
2019-03-21T12:46:47.832Z,18.32
2019-03-21T12:49:16.981Z,17.37
2019-03-21T12:51:46.173Z,18.52
2019-03-21T12:54:15.406Z,18.95
2019-03-21T12:56:44.566Z,16.48
2019-03-21T12:59:13.737Z,17.87
2019-03-21T13:01:42.974Z,20.80
2019-03-21T13:04:12.217Z,17.45
2019-03-21T13:06:42.413Z,18.52
2019-03-21T13:09:11.677Z,21.12
2019-03-21T13:11:40.853Z,19.87
2019-03-21T13:14:10.105Z,19.05
2019-03-21T13:16:39.591Z,17.70
2019-03-21T13:19:08.762Z,19.35
2019-03-21T13:21:38.981Z,20.90
2019-03-21T13:24:08.659Z,17.42
2019-03-21T13:26:38.239Z,18.77
2019-03-21T13:29:08.457Z,17.62
2019-03-21T13:31:38.841Z,19.90
2019-03-21T13:34:08.922Z,18.73
2019-03-21T13:36:38.106Z,41.10
2019-03-21T13:39:08.234Z,20.25
2019-03-21T13:41:37.474Z,20.90
2019-03-21T13:44:08.713Z,20.90
2019-03-21T13:46:38.058Z,19.92
2019-03-21T13:49:08.601Z,21.48
2019-03-21T13:51:39.399Z,21.97
2019-03-21T13:54:08.852Z,20.57
2019-03-21T13:56:40.661Z,22.48
2019-03-21T13:59:11.811Z,24.92
2019-03-21T14:01:42.438Z,25.20
2019-03-21T14:04:17.812Z,21.05
2019-03-21T14:06:49.133Z,24.90
2019-03-21T14:09:20.329Z,26.60
2019-03-21T14:11:49.186Z,22.20
2019-03-21T14:14:18.442Z,27.27
2019-03-21T14:16:51.079Z,24.75
2019-03-21T14:19:24.253Z,23.47
2019-03-21T14:21:54.703Z,21.48
2019-03-21T14:24:23.978Z,24.98
2019-03-21T14:26:53.261Z,22.67
2019-03-21T14:29:23.393Z,27.22
2019-03-21T14:31:52.584Z,25.27
2019-03-21T14:34:21.761Z,26.52
2019-03-21T14:36:50.999Z,21.20
2019-03-21T14:39:20.182Z,24.70
2019-03-21T14:41:49.370Z,22.73
2019-03-21T14:44:18.650Z,26.75
2019-03-21T14:46:47.861Z,22.05
2019-03-21T14:49:17.022Z,24.27
2019-03-21T14:51:46.185Z,21.77
2019-03-21T14:54:15.338Z,23.83
2019-03-21T14:56:45.500Z,23.10
2019-03-21T14:59:17.789Z,22.98
2019-03-21T15:01:47.007Z,20.68
2019-03-21T15:04:16.768Z,26.27
2019-03-21T15:06:46.013Z,23.15
2019-03-21T15:09:15.186Z,23.90
2019-03-21T15:11:44.450Z,21.42
2019-03-21T15:14:13.714Z,23.12
2019-03-21T15:16:42.873Z,22.27
2019-03-21T15:19:12.103Z,24.05
2019-03-21T15:21:41.353Z,19.48
2019-03-21T15:24:10.550Z,23.07
2019-03-21T15:26:39.830Z,20.68
2019-03-21T15:29:08.994Z,26.07
2019-03-21T15:31:39.271Z,21.12
2019-03-21T15:34:08.539Z,22.65
2019-03-21T15:36:38.341Z,21.97
2019-03-21T15:39:08.486Z,21.33
2019-03-21T15:41:38.170Z,23.00
2019-03-21T15:44:08.862Z,25.02
2019-03-21T15:46:39.062Z,22.93
2019-03-21T15:49:08.321Z,25.20
2019-03-21T15:51:38.491Z,20.60
2019-03-21T15:54:09.858Z,21.60
2019-03-21T15:56:39.154Z,25.72
2019-03-21T15:59:10.280Z,21.73
2019-03-21T16:01:39.838Z,21.52
2019-03-21T16:04:09.074Z,21.77
2019-03-21T16:06:40.297Z,24.90
2019-03-21T16:09:09.543Z,27.35
2019-03-21T16:11:39.803Z,26.05
2019-03-21T16:14:09.011Z,26.27
2019-03-21T16:16:38.169Z,22.30
2019-03-21T16:19:07.342Z,28.32
2019-03-21T16:21:38.506Z,23.47
2019-03-21T16:24:07.808Z,22.42
2019-03-21T16:26:38.574Z,25.00
2019-03-21T16:29:10.029Z,23.40
2019-03-21T16:31:38.605Z,25.88
2019-03-21T16:34:07.767Z,26.25
2019-03-21T16:36:37.021Z,27.15
2019-03-21T16:39:07.623Z,25.37
2019-03-21T16:41:36.844Z,30.92
2019-03-21T16:44:06.154Z,24.40
2019-03-21T16:46:37.365Z,26.12
2019-03-21T16:49:06.559Z,28.45
2019-03-21T16:51:36.713Z,25.75
2019-03-21T16:54:16.532Z,27.58
2019-03-21T16:56:37.055Z,25.23
2019-03-21T16:59:07.346Z,26.68
2019-03-21T17:01:36.594Z,25.70
2019-03-21T17:04:05.842Z,24.12
2019-03-21T17:06:35.117Z,25.75
2019-03-21T17:09:07.043Z,29.72
2019-03-21T17:11:37.226Z,26.30
2019-03-21T17:14:06.467Z,27.55
2019-03-21T17:16:37.742Z,27.22
2019-03-21T17:19:06.992Z,24.05
2019-03-21T17:21:37.284Z,25.15
2019-03-21T17:24:07.590Z,31.87
2019-03-21T17:26:36.923Z,28.50
2019-03-21T17:29:06.294Z,28.07
2019-03-21T17:31:35.484Z,24.92
2019-03-21T17:34:04.934Z,28.38
2019-03-21T17:36:34.145Z,31.35
2019-03-21T17:39:04.079Z,31.68
2019-03-21T17:41:36.094Z,29.27
2019-03-21T17:44:06.347Z,27.77
2019-03-21T17:46:35.594Z,31.17
2019-03-21T17:49:27.651Z,32.63
2019-03-21T17:52:00.566Z,31.40
2019-03-21T17:54:40.918Z,34.33
2019-03-21T17:57:05.283Z,32.58
2019-03-21T17:59:34.561Z,32.08
2019-03-21T18:02:04.932Z,35.25
2019-03-21T18:04:41.035Z,31.23
2019-03-21T18:07:10.214Z,30.60
2019-03-21T18:09:39.452Z,32.88
2019-03-21T18:12:08.718Z,35.35
2019-03-21T18:14:37.934Z,37.15
2019-03-21T18:17:07.159Z,32.83
2019-03-21T18:19:36.394Z,34.43
2019-03-21T18:22:07.653Z,35.28
2019-03-21T18:24:36.959Z,31.42
2019-03-21T18:27:06.230Z,32.88
2019-03-21T18:29:35.546Z,34.88
2019-03-21T18:32:06.839Z,36.65
2019-03-21T18:34:37.417Z,36.60
2019-03-21T18:37:06.585Z,37.78
2019-03-21T18:39:35.836Z,35.90
2019-03-21T18:42:05.008Z,32.38
2019-03-21T18:44:34.215Z,35.05
2019-03-21T18:47:03.417Z,35.35
2019-03-21T18:49:32.691Z,38.90
2019-03-21T18:52:01.996Z,38.13
2019-03-21T18:54:31.271Z,31.23
2019-03-21T18:57:00.538Z,33.60
2019-03-21T18:59:35.968Z,34.95
2019-03-21T19:02:06.198Z,31.68
2019-03-21T19:04:35.503Z,34.90
2019-03-21T19:07:04.874Z,35.13
2019-03-21T19:09:34.457Z,31.17
2019-03-21T19:12:03.688Z,33.60
2019-03-21T19:14:32.897Z,36.30
2019-03-21T19:17:03.124Z,43.25
2019-03-21T19:19:32.421Z,71.70
2019-03-21T19:22:03.650Z,48.33
2019-03-21T19:24:32.865Z,54.83
2019-03-21T19:27:03.957Z,56.95
2019-03-21T19:29:34.673Z,63.95
2019-03-21T19:32:03.873Z,66.33
2019-03-21T19:34:34.252Z,68.07
2019-03-21T19:37:04.534Z,75.97
2019-03-21T19:39:33.791Z,72.27
2019-03-21T19:42:05.717Z,79.37
2019-03-21T19:44:35.170Z,80.53
2019-03-21T19:47:04.409Z,77.78
2019-03-21T19:49:35.799Z,75.85
2019-03-21T19:52:05.552Z,78.85
2019-03-21T19:54:34.811Z,69.12
2019-03-21T19:57:04.009Z,74.42
2019-03-21T19:59:33.176Z,68.10
2019-03-21T20:02:02.406Z,63.42
2019-03-21T20:04:31.598Z,61.73
2019-03-21T20:07:00.778Z,63.23
2019-03-21T20:09:33.249Z,61.13
2019-03-21T20:12:02.508Z,57.38
2019-03-21T20:14:33.409Z,57.88
2019-03-21T20:17:03.549Z,83.97
2019-03-21T20:19:34.725Z,60.58
2019-03-21T20:22:03.961Z,58.78
2019-03-21T20:24:33.219Z,55.80
2019-03-21T20:27:04.423Z,54.27
2019-03-21T20:29:33.590Z,56.50
2019-03-21T20:32:02.847Z,61.80
2019-03-21T20:34:33.436Z,57.55
2019-03-21T20:37:02.702Z,54.38
2019-03-21T20:39:31.921Z,58.58
2019-03-21T20:42:01.246Z,56.23
2019-03-21T20:44:30.553Z,58.42
2019-03-21T20:46:59.833Z,57.27
2019-03-21T20:49:29.121Z,58.08
2019-03-21T20:51:58.283Z,57.13
2019-03-21T20:54:27.437Z,59.42
2019-03-21T20:56:56.719Z,59.90
2019-03-21T20:59:25.893Z,60.52
2019-03-21T21:02:02.696Z,59.93
2019-03-21T21:04:27.088Z,58.92
2019-03-21T21:06:59.485Z,58.73
2019-03-21T21:09:28.669Z,60.60
2019-03-21T21:11:57.913Z,56.48
2019-03-21T21:14:27.095Z,64.00
2019-03-21T21:16:56.254Z,60.00
2019-03-21T21:19:25.439Z,56.50
2019-03-21T21:21:54.854Z,56.65
2019-03-21T21:24:31.555Z,64.05
2019-03-21T21:27:00.721Z,64.17
2019-03-21T21:29:29.927Z,60.40
2019-03-21T21:32:00.666Z,63.85
2019-03-21T21:34:30.838Z,62.67
2019-03-21T21:37:01.922Z,67.42
2019-03-21T21:39:32.374Z,63.00
2019-03-21T21:42:03.262Z,65.35
2019-03-21T21:44:47.261Z,68.15
2019-03-21T21:47:18.126Z,67.83
2019-03-21T21:49:47.338Z,68.72
2019-03-21T21:52:18.433Z,68.78
2019-03-21T21:54:49.230Z,69.20
2019-03-21T21:57:18.598Z,70.35
2019-03-21T21:59:47.773Z,72.08
2019-03-21T22:02:21.528Z,74.87
2019-03-21T22:04:52.405Z,73.55
2019-03-21T22:07:24.089Z,76.57
2019-03-21T22:09:53.359Z,73.12
2019-03-21T22:12:22.617Z,75.83
2019-03-21T22:14:51.797Z,80.77
2019-03-21T22:17:20.965Z,82.97
2019-03-21T22:20:00.829Z,82.05
2019-03-21T22:22:36.481Z,80.32
2019-03-21T22:25:07.098Z,87.85
2019-03-21T22:27:36.276Z,82.60
2019-03-21T22:30:14.908Z,85.65
2019-03-21T22:32:48.775Z,89.10
2019-03-21T22:35:17.950Z,90.12
2019-03-21T22:37:47.180Z,87.00
2019-03-21T22:40:17.458Z,88.52
2019-03-21T22:42:47.594Z,88.92
2019-03-21T22:45:17.863Z,83.47
2019-03-21T22:47:50.145Z,86.22
2019-03-21T22:50:18.085Z,87.53
2019-03-21T22:52:49.307Z,88.15
2019-03-21T22:55:18.562Z,85.12
2019-03-21T22:57:48.731Z,91.97
2019-03-21T23:00:22.995Z,94.15
2019-03-21T23:02:54.870Z,92.53
2019-03-21T23:05:24.043Z,92.55
2019-03-21T23:07:53.322Z,91.87
2019-03-21T23:10:22.509Z,91.53
2019-03-21T23:12:53.408Z,99.25
2019-03-21T23:15:23.602Z,110.05
2019-03-21T23:17:53.718Z,90.83
2019-03-21T23:20:23.922Z,98.37
2019-03-21T23:22:54.102Z,103.27
2019-03-21T23:25:23.290Z,95.75
2019-03-21T23:27:52.556Z,94.60
2019-03-21T23:30:21.858Z,100.80
2019-03-21T23:32:51.195Z,104.83
2019-03-21T23:35:20.445Z,102.85
2019-03-21T23:37:49.718Z,97.88
2019-03-21T23:40:18.898Z,98.62
2019-03-21T23:42:48.137Z,104.07
2019-03-21T23:45:20.095Z,102.25
2019-03-21T23:47:49.589Z,101.57
2019-03-21T23:50:20.243Z,104.10
2019-03-21T23:52:50.554Z,109.48
2019-03-21T23:55:20.306Z,103.75
2019-03-21T23:57:49.502Z,103.65
